METAR Data
IDs: Format: Raw Decoded Include TAF

Data at: 0918 UTC 26 Jan 2020

KOVS 260853Z AUTO 26004KT 10SM BKN016 OVC044 00/M04 A2995 RMK AO2 SLP150 T00001039 50002
KOVS 260753Z AUTO 26007KT 10SM OVC015 01/M03 A2996 RMK AO2 SLP152 T00061033
KOVS 260653Z AUTO 25006KT 10SM OVC015 01/M03 A2995 RMK AO2 SLP150 T00061028
KOVS 260639Z AUTO VRB06KT 10SM BKN015 OVC029 01/M03 A2995 RMK AO2 T00111028
KOVS 260553Z AUTO 26005KT 10SM OVC014 01/M03 A2994 RMK AO2 SLP147 T00111028 10017 20011 400220011 51005
KOVS 260516Z AUTO 25004KT 10SM OVC014 01/M03 A2994 RMK AO2 T00111028
KOVS 260453Z AUTO 24005KT 10SM OVC015 01/M02 A2994 RMK AO2 SLP146 T00111022
KOVS 260353Z AUTO 24005KT 10SM OVC017 01/M02 A2994 RMK AO2 SLP144 T00111022
KOVS 260253Z AUTO 24005KT 10SM BKN018 OVC038 01/M03 A2993 RMK AO2 SLP142 T00111028 53005
KOVS 260153Z AUTO 27004KT 10SM OVC041 01/M03 A2992 RMK AO2 SLP140 T00111028
KOVS 260124Z AUTO 00000KT 10SM SCT019 OVC041 02/M02 A2992 RMK AO2 T00171022
KOVS 260053Z AUTO 00000KT 10SM BKN021 BKN045 OVC055 02/M02 A2992 RMK AO2 SLP139 T00171022
KOVS 260025Z AUTO 27005KT 10SM SCT019 BKN028 OVC046 02/M02 A2992 RMK AO2 T00171022
KOVS 252253Z AUTO 26005KT 10SM BKN019 OVC047 02/M02 A2990 RMK AO2 SLP132 T00171022
KOVS 252250Z AUTO 26005KT 10SM BKN019 OVC045 02/M02 A2990 RMK AO2
KOVS 252153Z AUTO 31005KT 10SM FEW017 SCT040 OVC049 02/M02 A2988 RMK AO2 SLP127 T00221022
KOVS 252146Z AUTO 30005KT 10SM SCT017 BKN042 OVC049 02/M02 A2988 RMK AO2 T00221017
KOVS 252053Z AUTO 28008KT 10SM OVC016 02/M02 A2988 RMK AO2 SNB16E27 SLP125 P0000 60000 T00171022 53001
KOVS 251953Z AUTO 29008KT 9SM OVC015 02/M02 A2987 RMK AO2 SLP123 T00171022
KOVS 251853Z AUTO 27006KT 10SM OVC015 02/M02 A2987 RMK AO2 SLP124 T00171022
KOVS 251823Z AUTO 28008KT 10SM OVC015 02/M02 A2987 RMK AO2 T00171022
KOVS 251753Z AUTO 27009KT 10SM OVC014 02/M02 A2988 RMK AO2 SLP124 T00171022 10022 20017 50004
KOVS 251653Z AUTO 29008KT 10SM OVC013 02/M02 A2989 RMK AO2 SLP127 T00171017
KOVS 251553Z AUTO 28006KT 10SM OVC013 02/M02 A2988 RMK AO2 SLP126 T00171017
KOVS 251533Z AUTO 27005KT 10SM OVC014 02/M02 A2987 RMK AO2 T00171017
KOVS 251453Z AUTO 28004KT 10SM OVC015 02/M02 A2986 RMK AO2 SLP120 T00171017 51007
KOVS 251425Z AUTO 28005KT 10SM OVC015 02/M01 A2986 RMK AO2 T00171011
KOVS 251353Z AUTO 30003KT 8SM OVC013 02/M01 A2986 RMK AO2 SLP120 T00171011
KOVS 251253Z AUTO 30007KT 10SM OVC014 02/M01 A2985 RMK AO2 SLP115 T00221011
KOVS 251153Z AUTO 30006KT 10SM OVC012 02/M01 A2984 RMK AO2 SLP113 60000 70004 T00221011 10022 20017 53002
KOVS 251053Z AUTO 28005KT 9SM OVC011 02/M01 A2984 RMK AO2 UPB07E19 SLP111 P0000 T00171006
KOVS 250953Z AUTO 29005KT 8SM OVC010 02/M01 A2983 RMK AO2 SNE03 CIG 009V015 SLP109 P0000 T00171006
KOVS 250911Z AUTO 29004KT 8SM OVC010 02/M01 A2984 RMK AO2 SNE03 CIG 009V014 P0000 T00171006
KOVS 250853Z AUTO 29005KT 5SM -SN BR OVC009 02/M01 A2984 RMK AO2 RAB27E36UPB36E42SNB46 CIG 008V012 SLP111 P0000 60000 T00171006 55004
KOVS 250753Z AUTO VRB03KT 7SM OVC007 02/00 A2984 RMK AO2 SLP111 T00170000
KOVS 250653Z AUTO 31007KT 8SM OVC009 02/00 A2984 RMK AO2 SLP111 T00220000
KOVS 250553Z AUTO 32006KT 8SM OVC009 02/00 A2985 RMK AO2 RAE01UPB01E14 SLP115 P0000 60000 T00220000 10028 20022 400280000 56005
KOVS 250453Z AUTO 32005KT 5SM -RA BR OVC008 02/00 A2986 RMK AO2 RAB50 SLP117 P0000 T00220000
KOVS 250353Z AUTO 32004KT 9SM OVC009 02/M01 A2986 RMK AO2 SLP117 T00221006
KOVS 250253Z AUTO 00000KT 10SM OVC011 02/M01 A2986 RMK AO2 SLP120 T00221006 50000
KOVS 250153Z AUTO VRB03KT 10SM OVC011 02/M01 A2986 RMK AO2 SLP120 T00221006
KOVS 250053Z AUTO 35005KT 10SM OVC013 03/M01 A2987 RMK AO2 SLP121 T00281006
KOVS 242353Z AUTO 35005KT 10SM OVC013 03/M01 A2986 RMK AO2 SLP120 60001 T00281006 10028 20022 53002
KOVS 242253Z AUTO 36003KT 10SM OVC013 03/M01 A2986 RMK AO2 SLP118 T00281006
KOVS 242153Z AUTO 02003KT 10SM OVC013 03/00 A2986 RMK AO2 SLP119 T00280000